»·PEaware :: ACA554 KBOS-KDCA

ACA554 :: KBOS-KDCA

FLIGHT INFORMATION

Flight Status: Arrived
Operator:
Air Canada
More flights by this operator :: More flights under this callsign
Pilot: Shawn G. (7208)
Aircraft: AIRBUS A320
(A320)
More flights by this aircraft type
Origin: KBOS Logan Intl
United States
Destination: KDCA Ronald Reagan Washington Natl
United States
More flights between these airports :: More routes between these airports
Route: PATSS5 PATSS NELIE CMK J75 SBJ J75 MXE CLIPR1
File this flight plan on PilotEdge
Remarks:
Altitude:
(Current/Filed)
38,000ft
Speed:
(Current/Filed)
449kts
Departed: 02-Dec-17 12:33 PM
Arrived: 02-Dec-17 01:56 PM
Distance/Time
Traveled:
346nm/1:23
Distance/Time
To Go:
Arrived

Flight Plot

Page will automatically refresh every two minutes.

Flight plan parsing failed; only flown route is shown


Map Options




Map Legend


Flown Route
Filed Route
Departure Airport
Arrival Airport
Navaid (VOR, NDB)
Fix

Horizontal Profiles

Position Reports

Time Latitude Longitude Heading Altitude Ground
Speed
02-Dec-17 12:18 42.362964 -71.019875 132 29ft 0kts
02-Dec-17 12:19 42.362964 -71.019875 132 29ft 0kts
02-Dec-17 12:20 42.362964 -71.019875 132 29ft 0kts
02-Dec-17 12:21 42.362964 -71.019875 132 29ft 0kts
02-Dec-17 12:22 42.362964 -71.019875 132 29ft 0kts
02-Dec-17 12:23 42.362964 -71.019875 132 29ft 0kts
02-Dec-17 12:24 42.362964 -71.019875 132 29ft 0kts
02-Dec-17 12:25 42.362964 -71.019875 132 29ft 0kts
02-Dec-17 12:26 42.362964 -71.019875 132 29ft 0kts
02-Dec-17 12:27 42.362964 -71.019875 132 29ft 0kts
02-Dec-17 12:28 42.362965 -71.019875 132 29ft 0kts
02-Dec-17 12:29 42.363365 -71.020137 178 29ft 2kts
02-Dec-17 12:30 42.362891 -71.020917 254 29ft 1kts
02-Dec-17 12:31 42.362885 -71.020945 254 29ft 0kts
02-Dec-17 12:32 42.362885 -71.020945 254 29ft 0kts
02-Dec-17 12:33 42.361537 -71.022986 197 29ft 14kts
02-Dec-17 12:34 42.358414 -71.017656 102 29ft 25kts
02-Dec-17 12:35 42.354919 -71.017200 166 29ft 19kts
02-Dec-17 12:36 42.352080 -71.012389 128 29ft 2kts
02-Dec-17 12:37 42.352534 -71.010965 12 29ft 8kts
02-Dec-17 12:38 42.387495 -70.994065 21 1843ft 196kts
02-Dec-17 12:39 42.441787 -70.952662 61 5336ft 264kts
02-Dec-17 12:40 42.458379 -70.851954 96 9251ft 299kts
02-Dec-17 12:41 42.415221 -70.755543 156 12669ft 321kts
02-Dec-17 12:42 42.326776 -70.735045 186 15990ft 329kts
02-Dec-17 12:43 42.256410 -70.802655 231 19043ft 325kts
02-Dec-17 12:44 42.210828 -70.908511 245 21836ft 334kts
02-Dec-17 12:45 42.184733 -71.028674 260 24337ft 341kts
02-Dec-17 12:46 42.167261 -71.155847 260 26583ft 351kts
02-Dec-17 12:47 42.149134 -71.286392 260 28588ft 360kts
02-Dec-17 12:48 42.130427 -71.419902 260 30354ft 368kts
02-Dec-17 12:49 42.111156 -71.556204 260 31917ft 376kts
02-Dec-17 12:50 42.091250 -71.695748 260 33295ft 384kts
02-Dec-17 12:51 42.070458 -71.837248 260 34589ft 388kts
02-Dec-17 12:52 42.049389 -71.978956 260 36022ft 386kts
02-Dec-17 12:53 42.028221 -72.120050 260 37196ft 386kts
02-Dec-17 12:54 42.006771 -72.261765 260 38172ft 387kts
02-Dec-17 12:55 41.985178 -72.403219 260 38363ft 385kts
02-Dec-17 12:56 41.963471 -72.544156 260 38367ft 387kts
02-Dec-17 12:57 41.934792 -72.682676 245 38371ft 393kts
02-Dec-17 12:58 41.864184 -72.793684 230 38398ft 403kts
02-Dec-17 12:59 41.786014 -72.900435 231 38376ft 402kts
02-Dec-17 13:00 41.707765 -73.006833 230 38355ft 401kts
02-Dec-17 13:01 41.629682 -73.112597 230 38358ft 399kts
02-Dec-17 13:02 41.552097 -73.217315 230 38239ft 402kts
02-Dec-17 13:03 41.472068 -73.324868 229 38423ft 414kts
02-Dec-17 13:04 41.390833 -73.433683 229 38726ft 416kts
02-Dec-17 13:05 41.309015 -73.542869 229 39019ft 417kts
02-Dec-17 13:06 41.234777 -73.658200 235 39264ft 413kts
02-Dec-17 13:07 41.164017 -73.777686 235 39544ft 413kts
02-Dec-17 13:08 41.093255 -73.896739 235 39780ft 414kts
02-Dec-17 13:09 41.021786 -74.016513 235 39913ft 418kts
02-Dec-17 13:10 40.949248 -74.137604 235 40000ft 424kts
02-Dec-17 13:11 40.876635 -74.258345 235 40125ft 426kts
02-Dec-17 13:12 40.804953 -74.377089 235 39352ft 401kts
02-Dec-17 13:13 40.736318 -74.490377 234 37427ft 390kts
02-Dec-17 13:14 40.668821 -74.601356 234 34981ft 390kts
02-Dec-17 13:15 40.602662 -74.709765 234 32909ft 379kts
02-Dec-17 13:16 40.532207 -74.813825 230 32349ft 384kts
02-Dec-17 13:17 40.460553 -74.915076 230 31651ft 376kts
02-Dec-17 13:18 40.389504 -75.015117 230 30822ft 374kts
02-Dec-17 13:19 40.319095 -75.113958 230 29942ft 370kts
02-Dec-17 13:20 40.249570 -75.211237 230 29019ft 365kts
02-Dec-17 13:21 40.180567 -75.307476 230 28043ft 360kts
02-Dec-17 13:22 40.112638 -75.401922 230 27014ft 355kts
02-Dec-17 13:23 40.045598 -75.494847 230 25909ft 350kts
02-Dec-17 13:24 39.979348 -75.586399 231 24773ft 345kts
02-Dec-17 13:25 39.915476 -75.676427 236 23643ft 338kts
02-Dec-17 13:26 39.864552 -75.773740 239 22533ft 332kts
02-Dec-17 13:27 39.813267 -75.871983 239 21381ft 327kts
02-Dec-17 13:28 39.762561 -75.968829 239 20226ft 322kts
02-Dec-17 13:29 39.713167 -76.062891 239 18597ft 309kts
02-Dec-17 13:30 39.665894 -76.152663 239 16926ft 297kts
02-Dec-17 13:31 39.620179 -76.239234 239 15267ft 287kts
02-Dec-17 13:32 39.569210 -76.316781 218 13633ft 287kts
02-Dec-17 13:33 39.514648 -76.364144 218 12297ft 282kts
02-Dec-17 13:34 39.438438 -76.430382 218 11678ft 286kts
02-Dec-17 13:35 39.372304 -76.487700 217 11297ft 288kts
02-Dec-17 13:36 39.316952 -76.535571 217 10964ft 288kts
02-Dec-17 13:37 39.239969 -76.601994 214 10493ft 285kts
02-Dec-17 13:38 39.185423 -76.648950 214 10124ft 272kts
02-Dec-17 13:39 39.128824 -76.711479 223 10036ft 270kts
02-Dec-17 13:40 39.073640 -76.776814 224 10040ft 269kts
02-Dec-17 13:41 39.018537 -76.841924 224 10035ft 269kts
02-Dec-17 13:42 38.972665 -76.914504 263 9538ft 265kts
02-Dec-17 13:43 38.975926 -77.011072 281 7692ft 274kts
02-Dec-17 13:44 39.021645 -77.082283 316 6252ft 260kts
02-Dec-17 13:45 39.073692 -77.146255 314 5020ft 261kts
02-Dec-17 13:46 39.126190 -77.211749 313 5017ft 265kts
02-Dec-17 13:47 39.176828 -77.280938 287 5011ft 263kts
02-Dec-17 13:48 39.140855 -77.342035 175 4353ft 257kts
02-Dec-17 13:49 39.083631 -77.289030 140 3094ft 254kts
02-Dec-17 13:50 39.032153 -77.231417 141 3002ft 223kts
02-Dec-17 13:51 38.987881 -77.181707 136 3014ft 204kts
02-Dec-17 13:52 38.951190 -77.132224 153 2618ft 186kts
02-Dec-17 13:53 38.908507 -77.098483 123 1778ft 180kts
02-Dec-17 13:54 38.883868 -77.045068 124 1214ft 166kts
02-Dec-17 13:55 38.846091 -77.036918 174 250ft 124kts
02-Dec-17 13:56 38.806178 -77.016619 100 1012ft 180kts
02-Dec-17 13:57 38.844094 -76.988905 358 1016ft 187kts
02-Dec-17 13:58 38.894072 -76.992827 351 1022ft 160kts
02-Dec-17 13:59 38.903920 -77.031222 216 743ft 127kts
02-Dec-17 14:00 38.871664 -77.039752 175 303ft 119kts
02-Dec-17 14:01 38.846504 -77.037239 173 23ft 40kts
02-Dec-17 14:02 38.845142 -77.038559 355 23ft 21kts
02-Dec-17 14:03 38.850250 -77.039020 353 23ft 8kts
02-Dec-17 14:04 38.851659 -77.040494 317 23ft 0kts
02-Dec-17 14:05 38.851662 -77.040498 317 23ft 0kts

Navigation Log

Ident Type
Flight plan parsing failed, navigation log unavailable